createdAt,value
2022-10-31T00:01:41.243Z,15.80
2022-10-31T00:04:11.615Z,15.70
2022-10-31T00:06:40.407Z,15.70
2022-10-31T00:09:11.496Z,15.60
2022-10-31T00:11:40.566Z,15.60
2022-10-31T00:14:09.625Z,15.60
2022-10-31T00:16:38.796Z,15.60
2022-10-31T00:19:08.701Z,15.60
2022-10-31T00:21:38.928Z,15.50
2022-10-31T00:24:08.224Z,15.60
2022-10-31T00:26:36.920Z,15.60
2022-10-31T00:29:06.084Z,15.50
2022-10-31T00:31:34.805Z,15.50
2022-10-31T00:34:04.543Z,15.50
2022-10-31T00:36:33.518Z,15.50
2022-10-31T00:39:04.509Z,15.50
2022-10-31T00:41:33.294Z,15.40
2022-10-31T00:44:03.094Z,15.40
2022-10-31T00:46:32.269Z,15.40
2022-10-31T00:49:01.064Z,15.40
2022-10-31T00:51:30.169Z,15.40
2022-10-31T00:54:00.116Z,15.30
2022-10-31T00:56:30.524Z,15.30
2022-10-31T00:59:00.387Z,15.30
2022-10-31T01:01:29.376Z,15.30
2022-10-31T01:03:58.435Z,15.30
2022-10-31T01:06:28.789Z,15.20
2022-10-31T01:08:59.382Z,15.20
2022-10-31T01:11:28.173Z,15.20
2022-10-31T01:13:58.994Z,15.20
2022-10-31T01:16:30.350Z,15.20
2022-10-31T01:18:59.916Z,15.20
2022-10-31T01:21:31.461Z,15.10
2022-10-31T01:24:02.977Z,15.10
2022-10-31T01:26:33.521Z,15.10
2022-10-31T01:29:06.812Z,15.10
2022-10-31T01:31:40.057Z,15.10
2022-10-31T01:34:09.162Z,15.00
2022-10-31T01:36:39.641Z,15.00
2022-10-31T01:39:11.385Z,15.00
2022-10-31T01:41:41.808Z,15.00
2022-10-31T01:45:00.220Z,14.90
2022-10-31T01:47:39.813Z,14.90
2022-10-31T01:50:16.693Z,14.90
2022-10-31T01:52:48.889Z,14.90
2022-10-31T01:55:25.250Z,14.90
2022-10-31T01:58:04.102Z,14.90
2022-10-31T02:00:33.692Z,14.80
2022-10-31T02:03:04.502Z,14.80
2022-10-31T02:05:34.353Z,14.80
2022-10-31T02:08:08.997Z,14.70
2022-10-31T02:10:39.369Z,14.70
2022-10-31T02:13:12.134Z,14.70
2022-10-31T02:15:50.570Z,14.70
2022-10-31T02:18:22.109Z,14.70
2022-10-31T02:21:03.079Z,14.70
2022-10-31T02:24:02.842Z,14.70
2022-10-31T02:26:59.349Z,14.70
2022-10-31T02:30:19.020Z,14.60
2022-10-31T02:33:08.956Z,14.70
2022-10-31T02:35:47.255Z,14.70
2022-10-31T02:38:26.314Z,14.70
2022-10-31T02:41:02.812Z,14.70
2022-10-31T02:43:56.723Z,14.60
2022-10-31T02:46:34.411Z,14.60
2022-10-31T02:49:12.773Z,14.50
2022-10-31T02:51:41.764Z,14.50
2022-10-31T02:54:20.462Z,14.40
2022-10-31T02:56:56.865Z,14.40
2022-10-31T02:59:26.309Z,14.30
2022-10-31T03:02:20.980Z,14.30
2022-10-31T03:05:11.778Z,14.30
2022-10-31T03:07:49.259Z,14.30
2022-10-31T03:10:26.094Z,14.20
2022-10-31T03:13:04.169Z,14.20
2022-10-31T03:15:35.580Z,14.20
2022-10-31T03:18:09.651Z,14.20
2022-10-31T03:20:44.302Z,14.20
2022-10-31T03:23:16.018Z,14.20
2022-10-31T03:25:47.087Z,14.20
2022-10-31T03:28:20.218Z,14.20
2022-10-31T03:30:51.666Z,14.20
2022-10-31T03:33:26.751Z,14.20
2022-10-31T03:35:59.245Z,14.20
2022-10-31T03:38:29.459Z,14.20
2022-10-31T03:41:03.754Z,14.20
2022-10-31T03:43:40.085Z,14.20
2022-10-31T03:46:09.000Z,14.20
2022-10-31T03:48:38.104Z,14.20
2022-10-31T03:51:15.780Z,14.10
2022-10-31T03:53:51.317Z,14.10
2022-10-31T03:56:29.531Z,14.10
2022-10-31T03:59:03.613Z,14.10
2022-10-31T04:01:36.807Z,14.00
2022-10-31T04:04:06.800Z,14.00
2022-10-31T04:06:39.598Z,14.00
2022-10-31T04:09:10.673Z,14.00
2022-10-31T04:11:44.214Z,14.00
2022-10-31T04:14:39.838Z,13.90
2022-10-31T04:17:13.966Z,13.90
2022-10-31T04:19:44.591Z,13.90
2022-10-31T04:22:15.363Z,13.90
2022-10-31T04:24:44.119Z,13.90
2022-10-31T04:27:16.445Z,13.90
2022-10-31T04:29:48.218Z,13.90
2022-10-31T04:32:19.940Z,13.90
2022-10-31T04:34:49.140Z,13.90
2022-10-31T04:37:19.738Z,13.80
2022-10-31T04:39:50.907Z,13.80
2022-10-31T04:42:45.810Z,13.80
2022-10-31T04:45:18.364Z,13.70
2022-10-31T04:47:52.721Z,13.70
2022-10-31T04:50:21.552Z,13.70
2022-10-31T04:52:51.657Z,13.70
2022-10-31T04:55:25.956Z,13.70
2022-10-31T04:58:13.316Z,13.70
2022-10-31T05:00:42.454Z,13.60
2022-10-31T05:03:11.245Z,13.60
2022-10-31T05:05:40.213Z,13.60
2022-10-31T05:08:10.721Z,13.60
2022-10-31T05:10:40.065Z,13.60
2022-10-31T05:13:09.169Z,13.50
2022-10-31T05:15:56.703Z,13.50
2022-10-31T05:18:28.674Z,13.50
2022-10-31T05:21:16.355Z,13.50
2022-10-31T05:23:51.128Z,13.50
2022-10-31T05:26:20.383Z,13.50
2022-10-31T05:28:50.132Z,13.50
2022-10-31T05:31:18.828Z,13.50
2022-10-31T05:33:48.294Z,13.50
2022-10-31T05:36:52.485Z,13.40
2022-10-31T05:39:26.228Z,13.40
2022-10-31T05:41:58.724Z,13.40
2022-10-31T05:44:29.408Z,13.40
2022-10-31T05:47:12.380Z,13.40
2022-10-31T05:50:01.155Z,13.50
2022-10-31T05:52:55.995Z,13.50
2022-10-31T05:55:34.893Z,13.50
2022-10-31T05:58:12.207Z,13.50
2022-10-31T06:00:43.691Z,13.50
2022-10-31T06:03:13.646Z,13.50
2022-10-31T06:05:52.530Z,13.50
2022-10-31T06:08:26.725Z,13.50
2022-10-31T06:10:58.741Z,13.50
2022-10-31T06:13:47.822Z,13.50
2022-10-31T06:16:25.685Z,13.50
2022-10-31T06:18:57.484Z,13.50
2022-10-31T06:21:26.780Z,13.50
2022-10-31T06:23:56.140Z,13.50
2022-10-31T06:26:49.344Z,13.50
2022-10-31T06:29:18.462Z,13.60
2022-10-31T06:32:00.266Z,13.60
2022-10-31T06:34:30.710Z,13.60
2022-10-31T06:37:00.188Z,13.50
2022-10-31T06:39:31.166Z,13.50
2022-10-31T06:42:02.192Z,13.50
2022-10-31T06:44:32.834Z,13.50
2022-10-31T06:47:01.901Z,13.40
2022-10-31T06:49:39.960Z,13.40
2022-10-31T06:52:15.391Z,13.40
2022-10-31T06:54:44.299Z,13.40
2022-10-31T06:57:14.836Z,13.40
2022-10-31T06:59:43.913Z,13.40
2022-10-31T07:02:27.970Z,13.40
2022-10-31T07:04:57.186Z,13.40
2022-10-31T07:07:26.589Z,13.40
2022-10-31T07:09:56.105Z,13.40
2022-10-31T07:12:42.158Z,13.50
2022-10-31T07:15:12.808Z,13.50
2022-10-31T07:17:41.834Z,13.60
2022-10-31T07:20:11.972Z,13.60
2022-10-31T07:22:41.007Z,13.70
2022-10-31T07:25:12.033Z,13.80
2022-10-31T07:28:01.981Z,13.80
2022-10-31T07:30:31.570Z,13.90
2022-10-31T07:33:00.770Z,14.00
2022-10-31T07:35:49.741Z,14.10
2022-10-31T07:38:23.157Z,14.20
2022-10-31T07:40:53.758Z,14.30
2022-10-31T07:43:24.771Z,14.40
2022-10-31T07:46:14.801Z,14.50
2022-10-31T07:49:02.224Z,14.50
2022-10-31T07:51:49.729Z,14.60
2022-10-31T07:54:36.706Z,14.70
2022-10-31T07:57:05.847Z,14.90
2022-10-31T07:59:36.219Z,15.00
2022-10-31T08:02:05.276Z,15.00
2022-10-31T08:04:34.126Z,15.10
2022-10-31T08:07:22.161Z,15.20
2022-10-31T08:09:58.337Z,15.20
2022-10-31T08:12:31.685Z,15.30
2022-10-31T08:15:03.016Z,15.30
2022-10-31T08:17:32.031Z,15.20
2022-10-31T08:20:03.361Z,15.30
2022-10-31T08:22:42.871Z,15.30
2022-10-31T08:25:13.368Z,15.30
2022-10-31T08:27:42.396Z,15.40
2022-10-31T08:30:20.928Z,15.40
2022-10-31T08:33:12.552Z,15.50
2022-10-31T08:36:00.442Z,15.60
2022-10-31T08:38:50.977Z,15.80
2022-10-31T08:41:20.267Z,16.00
2022-10-31T08:43:49.646Z,16.20
2022-10-31T08:46:19.974Z,16.40
2022-10-31T08:48:50.299Z,16.60
2022-10-31T08:51:20.590Z,16.80
2022-10-31T08:53:53.385Z,17.00
2022-10-31T08:56:57.233Z,17.30
2022-10-31T08:59:43.236Z,17.70
2022-10-31T09:02:45.824Z,18.00
2022-10-31T09:05:16.995Z,18.40
2022-10-31T09:07:46.046Z,18.80
2022-10-31T09:10:15.400Z,19.00
2022-10-31T09:12:45.139Z,19.40
2022-10-31T09:15:41.861Z,19.70
2022-10-31T09:18:25.577Z,20.10
2022-10-31T09:21:01.582Z,20.50
2022-10-31T09:23:32.975Z,20.80
2022-10-31T09:26:03.741Z,21.10
2022-10-31T09:29:05.628Z,21.50
2022-10-31T09:31:35.065Z,21.80
2022-10-31T09:34:09.587Z,22.00
2022-10-31T09:36:39.364Z,22.20
2022-10-31T09:39:11.912Z,22.40
2022-10-31T09:42:16.381Z,22.60
2022-10-31T09:44:53.652Z,22.70
2022-10-31T09:47:46.389Z,22.90
2022-10-31T09:50:43.280Z,23.10
2022-10-31T09:53:45.548Z,23.30
2022-10-31T09:56:21.937Z,23.50
2022-10-31T09:58:54.811Z,23.70
2022-10-31T10:01:45.078Z,23.80
2022-10-31T10:04:33.463Z,23.90
2022-10-31T10:07:31.285Z,23.90
2022-10-31T10:10:27.680Z,24.00
2022-10-31T10:13:19.702Z,23.90
2022-10-31T10:16:02.305Z,23.90
2022-10-31T10:18:41.996Z,24.00
2022-10-31T10:21:22.873Z,24.00
2022-10-31T10:24:12.382Z,24.00
2022-10-31T10:26:45.513Z,24.10
2022-10-31T10:29:28.904Z,24.20
2022-10-31T10:32:02.288Z,24.40
2022-10-31T10:34:36.704Z,24.50
2022-10-31T10:37:11.134Z,24.60
2022-10-31T10:39:46.155Z,24.60
2022-10-31T10:42:34.164Z,24.80
2022-10-31T10:45:32.925Z,24.90
2022-10-31T10:48:09.232Z,25.20
2022-10-31T10:50:43.184Z,25.70
2022-10-31T10:53:32.983Z,26.10
2022-10-31T10:56:13.698Z,26.60
2022-10-31T10:58:44.072Z,27.20
2022-10-31T11:03:49.420Z,28.10
2022-10-31T11:06:23.254Z,28.50
2022-10-31T11:08:53.848Z,28.90
2022-10-31T11:11:31.983Z,29.20
2022-10-31T11:14:05.033Z,29.50
2022-10-31T11:16:41.029Z,29.70
2022-10-31T11:19:18.105Z,29.90
2022-10-31T11:21:53.755Z,30.20
2022-10-31T11:24:27.137Z,30.30
2022-10-31T11:27:17.133Z,30.40
2022-10-31T11:29:46.061Z,30.50
2022-10-31T11:32:21.996Z,30.60
2022-10-31T11:34:54.241Z,30.70
2022-10-31T11:37:26.805Z,30.80
2022-10-31T11:39:58.150Z,30.80
2022-10-31T11:42:31.586Z,30.70
2022-10-31T11:45:00.987Z,30.70
2022-10-31T11:47:33.467Z,30.60
2022-10-31T11:50:12.454Z,30.50
2022-10-31T11:52:42.795Z,30.40
2022-10-31T11:55:31.780Z,30.20
2022-10-31T11:58:02.607Z,30.10
2022-10-31T12:00:34.760Z,29.90
2022-10-31T12:03:14.537Z,29.80
2022-10-31T12:05:45.811Z,29.60
2022-10-31T12:08:15.788Z,29.40
2022-10-31T12:10:53.251Z,29.20
2022-10-31T12:13:35.836Z,29.00
2022-10-31T12:16:12.996Z,28.70
2022-10-31T12:19:00.708Z,28.40
2022-10-31T12:21:50.358Z,28.10
2022-10-31T12:24:30.869Z,27.70
2022-10-31T12:27:10.977Z,27.40
2022-10-31T12:29:54.958Z,27.00
2022-10-31T12:32:33.626Z,26.80
2022-10-31T12:35:27.407Z,26.40
2022-10-31T12:38:12.380Z,26.20
2022-10-31T12:40:59.625Z,26.00
2022-10-31T12:43:41.562Z,25.70
2022-10-31T12:46:21.273Z,25.50
2022-10-31T12:49:18.835Z,25.40
2022-10-31T12:51:59.613Z,25.20
2022-10-31T12:54:50.966Z,25.00
2022-10-31T12:57:29.773Z,24.80
2022-10-31T13:00:03.328Z,24.70
2022-10-31T13:02:40.215Z,24.60
2022-10-31T13:05:17.109Z,24.50
2022-10-31T13:07:54.672Z,24.40
2022-10-31T13:10:27.765Z,24.30
2022-10-31T13:13:02.949Z,24.20
2022-10-31T13:15:35.386Z,24.10
2022-10-31T13:18:11.978Z,24.00
2022-10-31T13:20:44.354Z,24.00
2022-10-31T13:23:48.503Z,23.90
2022-10-31T13:26:14.010Z,23.90
2022-10-31T13:28:48.083Z,23.80
2022-10-31T13:31:17.178Z,23.70
2022-10-31T13:33:53.782Z,23.60
2022-10-31T13:36:31.110Z,23.60
2022-10-31T13:39:05.457Z,23.50
2022-10-31T13:41:45.826Z,23.50
2022-10-31T13:44:17.982Z,23.40
2022-10-31T13:46:47.243Z,23.40
2022-10-31T13:49:39.229Z,23.30
2022-10-31T13:52:16.032Z,23.30
2022-10-31T13:54:46.058Z,23.30
2022-10-31T13:57:19.714Z,23.20
2022-10-31T13:59:54.896Z,23.20
2022-10-31T14:02:28.890Z,23.20
2022-10-31T14:05:02.648Z,23.10
2022-10-31T14:07:33.287Z,23.10
2022-10-31T14:10:06.116Z,23.10
2022-10-31T14:12:39.123Z,23.00
2022-10-31T14:15:18.053Z,23.00
2022-10-31T14:17:50.531Z,22.90
2022-10-31T14:20:36.125Z,22.90
2022-10-31T14:23:35.453Z,22.90
2022-10-31T14:26:34.241Z,22.80
2022-10-31T14:29:22.856Z,22.80
2022-10-31T14:31:56.158Z,22.70
2022-10-31T14:34:28.612Z,22.70
2022-10-31T14:37:30.198Z,22.60
2022-10-31T14:40:19.589Z,22.60
2022-10-31T14:43:19.978Z,22.50
2022-10-31T14:45:57.919Z,22.40
2022-10-31T14:48:41.605Z,22.40
2022-10-31T14:51:15.568Z,22.30
2022-10-31T14:53:49.421Z,22.30
2022-10-31T14:56:25.746Z,22.20
2022-10-31T14:58:57.573Z,22.10
2022-10-31T15:01:29.062Z,22.10
2022-10-31T15:04:23.188Z,22.00
2022-10-31T15:06:59.837Z,22.00
2022-10-31T15:09:30.825Z,21.90
2022-10-31T15:12:02.233Z,21.90
2022-10-31T15:14:32.809Z,21.80
2022-10-31T15:17:05.119Z,21.80
2022-10-31T15:19:37.381Z,21.70
2022-10-31T15:22:06.515Z,21.70
2022-10-31T15:24:38.085Z,21.60
2022-10-31T15:27:14.385Z,21.50
2022-10-31T15:29:51.315Z,21.50
2022-10-31T15:32:23.850Z,21.40
2022-10-31T15:34:54.184Z,21.40
2022-10-31T15:37:25.802Z,21.30
2022-10-31T15:39:55.117Z,21.30
2022-10-31T15:42:30.470Z,21.20
2022-10-31T15:45:18.416Z,21.20
2022-10-31T15:47:53.262Z,21.10
2022-10-31T15:50:27.530Z,21.10
2022-10-31T15:52:56.755Z,21.00
2022-10-31T15:55:28.940Z,20.90
2022-10-31T15:58:02.854Z,20.90
2022-10-31T16:00:35.019Z,20.90
2022-10-31T16:03:06.708Z,20.80
2022-10-31T16:05:41.560Z,20.70
2022-10-31T16:08:36.363Z,20.70
2022-10-31T16:11:23.421Z,20.60
2022-10-31T16:14:02.347Z,20.50
2022-10-31T16:16:35.714Z,20.50
2022-10-31T16:19:08.227Z,20.50
2022-10-31T16:21:39.424Z,20.40
2022-10-31T16:24:19.803Z,20.40
2022-10-31T16:26:54.536Z,20.30
2022-10-31T16:29:30.141Z,20.30
2022-10-31T16:31:59.168Z,20.20
2022-10-31T16:34:28.243Z,20.20
2022-10-31T16:36:57.232Z,20.20
2022-10-31T16:39:26.086Z,20.10
2022-10-31T16:41:57.628Z,20.00
2022-10-31T16:44:28.963Z,20.00
2022-10-31T16:47:11.286Z,20.00
2022-10-31T16:49:40.333Z,19.90
2022-10-31T16:52:09.731Z,19.90
2022-10-31T16:54:40.004Z,19.80
2022-10-31T16:57:12.677Z,19.90
2022-10-31T16:59:43.501Z,19.80
2022-10-31T17:02:16.552Z,19.80
2022-10-31T17:04:46.365Z,19.70
2022-10-31T17:07:16.881Z,19.70
2022-10-31T17:09:45.993Z,19.70
2022-10-31T17:12:19.344Z,19.60
2022-10-31T17:14:52.576Z,19.60
2022-10-31T17:17:21.776Z,19.60
2022-10-31T17:19:50.964Z,19.50
2022-10-31T17:22:19.802Z,19.50
2022-10-31T17:24:48.750Z,19.50
2022-10-31T17:27:19.120Z,19.50
2022-10-31T17:29:49.342Z,19.40
2022-10-31T17:32:19.567Z,19.40
2022-10-31T17:34:48.597Z,19.40
2022-10-31T17:37:17.641Z,19.30
2022-10-31T17:39:46.687Z,19.30
2022-10-31T17:42:15.652Z,19.30
2022-10-31T17:44:44.537Z,19.20
2022-10-31T17:47:14.729Z,19.20
2022-10-31T17:49:43.780Z,19.20
2022-10-31T17:52:12.762Z,19.20
2022-10-31T17:54:42.164Z,19.10
2022-10-31T17:57:11.206Z,19.10
2022-10-31T17:59:40.037Z,19.10
2022-10-31T18:02:10.364Z,19.00
2022-10-31T18:04:41.460Z,19.00
2022-10-31T18:07:10.345Z,19.00
2022-10-31T18:09:39.351Z,18.90
2022-10-31T18:12:08.684Z,18.90
2022-10-31T18:14:37.934Z,18.90
2022-10-31T18:17:06.949Z,18.90
2022-10-31T18:19:35.869Z,18.80
2022-10-31T18:22:07.233Z,18.80
2022-10-31T18:24:36.437Z,18.80
2022-10-31T18:27:06.066Z,18.80
2022-10-31T18:29:35.190Z,18.80
2022-10-31T18:32:09.155Z,18.70
2022-10-31T18:34:38.773Z,18.70
2022-10-31T18:37:09.055Z,18.70
2022-10-31T18:39:38.277Z,18.70
2022-10-31T18:42:07.609Z,18.60
2022-10-31T18:44:36.664Z,18.60
2022-10-31T18:47:05.910Z,18.60
2022-10-31T18:49:36.580Z,18.60
2022-10-31T18:52:05.793Z,18.50
2022-10-31T18:54:36.058Z,18.50
2022-10-31T18:57:05.217Z,18.50
2022-10-31T18:59:34.108Z,18.40
2022-10-31T19:02:03.461Z,18.30
2022-10-31T19:04:32.497Z,18.30
2022-10-31T19:07:01.646Z,18.20
2022-10-31T19:09:31.795Z,18.20
2022-10-31T19:12:02.236Z,18.20
2022-10-31T19:14:31.080Z,18.10
2022-10-31T19:17:02.347Z,18.00
2022-10-31T19:19:31.583Z,18.00
2022-10-31T19:22:01.673Z,18.00
2022-10-31T19:24:30.341Z,17.90
2022-10-31T19:27:00.536Z,17.90
2022-10-31T19:29:30.931Z,17.90
2022-10-31T19:31:59.628Z,17.80
2022-10-31T19:34:28.442Z,17.80
2022-10-31T19:36:57.299Z,17.70
2022-10-31T19:39:25.999Z,17.70
2022-10-31T19:41:54.705Z,17.70
2022-10-31T19:44:23.733Z,17.60
2022-10-31T19:46:54.416Z,17.60
2022-10-31T19:49:23.572Z,17.50
2022-10-31T19:51:52.814Z,17.50
2022-10-31T19:54:21.812Z,17.50
2022-10-31T19:56:52.088Z,17.50
2022-10-31T19:59:21.220Z,17.40
2022-10-31T20:01:50.178Z,17.40
2022-10-31T20:04:20.272Z,17.40
2022-10-31T20:06:49.024Z,17.30
2022-10-31T20:09:17.849Z,17.30
2022-10-31T20:11:47.507Z,17.30
2022-10-31T20:14:17.740Z,17.20
2022-10-31T20:16:47.104Z,17.20
2022-10-31T20:19:15.972Z,17.20
2022-10-31T20:21:46.184Z,17.10
2022-10-31T20:24:15.250Z,17.10
2022-10-31T20:26:44.031Z,17.10
2022-10-31T20:29:16.692Z,17.00
2022-10-31T20:31:47.374Z,17.00
2022-10-31T20:34:16.968Z,16.90
2022-10-31T20:36:48.164Z,16.90
2022-10-31T20:39:17.124Z,16.90
2022-10-31T20:41:45.904Z,16.80
2022-10-31T20:44:14.988Z,16.80
2022-10-31T20:46:44.040Z,16.80
2022-10-31T20:49:12.813Z,16.80
2022-10-31T20:51:41.532Z,16.80
2022-10-31T20:54:13.975Z,16.80
2022-10-31T20:56:42.969Z,16.80
2022-10-31T20:59:12.344Z,16.80
2022-10-31T21:01:41.173Z,16.80
2022-10-31T21:04:12.004Z,16.70
2022-10-31T21:06:44.003Z,16.70
2022-10-31T21:09:18.671Z,16.60
2022-10-31T21:11:47.618Z,16.60
2022-10-31T21:14:16.688Z,16.50
2022-10-31T21:16:45.736Z,16.50
2022-10-31T21:19:14.546Z,16.50
2022-10-31T21:21:43.232Z,16.40
2022-10-31T21:24:14.973Z,16.40
2022-10-31T21:26:47.583Z,16.40
2022-10-31T21:29:17.449Z,16.40
2022-10-31T21:31:46.900Z,16.30
2022-10-31T21:34:16.357Z,16.30
2022-10-31T21:36:46.501Z,16.30
2022-10-31T21:39:15.662Z,16.30
2022-10-31T21:41:45.777Z,16.20
2022-10-31T21:44:14.434Z,16.20
2022-10-31T21:46:44.896Z,16.10
2022-10-31T21:49:15.501Z,16.10
2022-10-31T21:51:44.228Z,16.00
2022-10-31T21:54:28.722Z,16.00
2022-10-31T21:57:00.417Z,16.00
2022-10-31T21:59:32.702Z,15.90
2022-10-31T22:02:01.927Z,15.90
2022-10-31T22:04:30.941Z,15.90
2022-10-31T22:06:59.690Z,15.80
2022-10-31T22:09:28.652Z,15.80
2022-10-31T22:11:59.733Z,15.80
2022-10-31T22:14:28.494Z,15.80
2022-10-31T22:16:57.192Z,15.80
2022-10-31T22:19:26.015Z,15.80
2022-10-31T22:21:55.129Z,15.80
2022-10-31T22:24:24.152Z,15.70
2022-10-31T22:26:52.951Z,15.70
2022-10-31T22:29:23.361Z,15.70
2022-10-31T22:31:57.380Z,15.70
2022-10-31T22:34:31.476Z,15.60
2022-10-31T22:37:01.977Z,15.60
2022-10-31T22:39:30.932Z,15.60
2022-10-31T22:41:59.677Z,15.60
2022-10-31T22:44:29.745Z,15.60
2022-10-31T22:46:58.649Z,15.60
2022-10-31T22:49:27.898Z,15.50
2022-10-31T22:51:59.844Z,15.60
2022-10-31T22:54:28.953Z,15.50
2022-10-31T22:56:57.649Z,15.50
2022-10-31T22:59:26.761Z,15.50
2022-10-31T23:01:57.221Z,15.50
2022-10-31T23:04:26.191Z,15.50
2022-10-31T23:06:55.296Z,15.50
2022-10-31T23:09:24.791Z,15.50
2022-10-31T23:11:53.673Z,15.50
2022-10-31T23:14:21.643Z,15.50
2022-10-31T23:16:51.764Z,15.40
2022-10-31T23:19:24.425Z,15.40
2022-10-31T23:21:59.803Z,15.40
2022-10-31T23:24:34.163Z,15.40
2022-10-31T23:27:07.536Z,15.40
2022-10-31T23:29:39.477Z,15.40
2022-10-31T23:32:12.021Z,15.40
2022-10-31T23:34:42.412Z,15.40
2022-10-31T23:37:11.469Z,15.30
2022-10-31T23:39:40.978Z,15.30
2022-10-31T23:42:10.889Z,15.30
2022-10-31T23:44:39.512Z,15.30
2022-10-31T23:47:08.472Z,15.30
2022-10-31T23:49:37.688Z,15.30
2022-10-31T23:52:08.537Z,15.30
2022-10-31T23:54:37.464Z,15.30
2022-10-31T23:57:06.537Z,15.30
2022-10-31T23:59:36.634Z,15.30
